sensor_id;sensor_type;location;lat;lon;timestamp;P1;durP1;ratioP1;P2;durP2;ratioP2
63342;SDS011;49465;57.664;39.686;2022-10-26T00:02:29;2.92;;;2.72;;
63342;SDS011;49465;57.664;39.686;2022-10-26T00:05:18;2.85;;;2.65;;
63342;SDS011;49465;57.664;39.686;2022-10-26T00:07:48;3.63;;;3.00;;
63342;SDS011;49465;57.664;39.686;2022-10-26T00:10:33;4.03;;;3.05;;
63342;SDS011;49465;57.664;39.686;2022-10-26T00:13:19;3.55;;;3.25;;
63342;SDS011;49465;57.664;39.686;2022-10-26T00:16:08;3.60;;;3.25;;
63342;SDS011;49465;57.664;39.686;2022-10-26T00:18:58;3.55;;;3.25;;
63342;SDS011;49465;57.664;39.686;2022-10-26T00:21:29;3.70;;;3.40;;
63342;SDS011;49465;57.664;39.686;2022-10-26T00:23:58;3.75;;;3.38;;
63342;SDS011;49465;57.664;39.686;2022-10-26T00:26:46;6.93;;;3.60;;
63342;SDS011;49465;57.664;39.686;2022-10-26T00:29:15;4.47;;;3.53;;
63342;SDS011;49465;57.664;39.686;2022-10-26T00:31:45;3.88;;;3.58;;
63342;SDS011;49465;57.664;39.686;2022-10-26T00:34:19;4.03;;;3.65;;
63342;SDS011;49465;57.664;39.686;2022-10-26T00:36:46;4.05;;;3.50;;
63342;SDS011;49465;57.664;39.686;2022-10-26T00:39:39;4.25;;;3.85;;
63342;SDS011;49465;57.664;39.686;2022-10-26T00:42:26;4.05;;;3.65;;
63342;SDS011;49465;57.664;39.686;2022-10-26T00:44:56;3.67;;;3.38;;
63342;SDS011;49465;57.664;39.686;2022-10-26T00:48:08;3.50;;;3.20;;
63342;SDS011;49465;57.664;39.686;2022-10-26T00:50:46;3.75;;;3.33;;
63342;SDS011;49465;57.664;39.686;2022-10-26T00:53:16;3.60;;;3.20;;
63342;SDS011;49465;57.664;39.686;2022-10-26T00:55:44;3.33;;;3.03;;
63342;SDS011;49465;57.664;39.686;2022-10-26T00:58:19;3.75;;;3.30;;
63342;SDS011;49465;57.664;39.686;2022-10-26T01:00:50;4.05;;;3.15;;
63342;SDS011;49465;57.664;39.686;2022-10-26T01:03:21;3.15;;;2.85;;
63342;SDS011;49465;57.664;39.686;2022-10-26T01:06:10;3.20;;;2.90;;
63342;SDS011;49465;57.664;39.686;2022-10-26T01:09:03;3.47;;;3.17;;
63342;SDS011;49465;57.664;39.686;2022-10-26T01:11:51;3.40;;;3.08;;
63342;SDS011;49465;57.664;39.686;2022-10-26T01:14:36;3.58;;;3.20;;
63342;SDS011;49465;57.664;39.686;2022-10-26T01:17:42;4.05;;;3.65;;
63342;SDS011;49465;57.664;39.686;2022-10-26T01:20:33;3.33;;;3.03;;
63342;SDS011;49465;57.664;39.686;2022-10-26T01:32:51;3.65;;;3.30;;
63342;SDS011;49465;57.664;39.686;2022-10-26T01:44:23;4.82;;;3.95;;
63342;SDS011;49465;57.664;39.686;2022-10-26T01:47:17;5.15;;;3.83;;
63342;SDS011;49465;57.664;39.686;2022-10-26T01:50:10;4.30;;;3.60;;
63342;SDS011;49465;57.664;39.686;2022-10-26T01:52:55;4.20;;;3.70;;
63342;SDS011;49465;57.664;39.686;2022-10-26T01:55:48;4.78;;;4.10;;
63342;SDS011;49465;57.664;39.686;2022-10-26T02:08:39;4.65;;;4.18;;
63342;SDS011;49465;57.664;39.686;2022-10-26T02:11:14;4.07;;;3.67;;
63342;SDS011;49465;57.664;39.686;2022-10-26T02:17:17;5.00;;;4.50;;
63342;SDS011;49465;57.664;39.686;2022-10-26T02:20:07;4.47;;;4.07;;
63342;SDS011;49465;57.664;39.686;2022-10-26T02:22:41;4.82;;;4.30;;
63342;SDS011;49465;57.664;39.686;2022-10-26T02:25:34;4.75;;;4.15;;
63342;SDS011;49465;57.664;39.686;2022-10-26T02:28:29;5.70;;;4.35;;
63342;SDS011;49465;57.664;39.686;2022-10-26T02:31:18;4.70;;;4.30;;
63342;SDS011;49465;57.664;39.686;2022-10-26T02:33:47;4.85;;;4.35;;
63342;SDS011;49465;57.664;39.686;2022-10-26T02:36:34;4.68;;;4.20;;
63342;SDS011;49465;57.664;39.686;2022-10-26T02:39:31;5.97;;;4.70;;
63342;SDS011;49465;57.664;39.686;2022-10-26T02:42:11;4.65;;;4.25;;
63342;SDS011;49465;57.664;39.686;2022-10-26T02:44:49;5.55;;;4.53;;
63342;SDS011;49465;57.664;39.686;2022-10-26T02:47:37;4.38;;;3.83;;
63342;SDS011;49465;57.664;39.686;2022-10-26T02:50:04;5.55;;;4.47;;
63342;SDS011;49465;57.664;39.686;2022-10-26T02:55:53;5.13;;;3.97;;
63342;SDS011;49465;57.664;39.686;2022-10-26T02:58:46;4.80;;;4.30;;
63342;SDS011;49465;57.664;39.686;2022-10-26T03:01:18;5.45;;;4.13;;
63342;SDS011;49465;57.664;39.686;2022-10-26T03:03:50;4.90;;;4.28;;
63342;SDS011;49465;57.664;39.686;2022-10-26T03:06:50;4.10;;;3.70;;
63342;SDS011;49465;57.664;39.686;2022-10-26T03:09:20;5.00;;;3.95;;
63342;SDS011;49465;57.664;39.686;2022-10-26T03:12:06;4.65;;;3.63;;
63342;SDS011;49465;57.664;39.686;2022-10-26T03:14:35;4.18;;;3.67;;
63342;SDS011;49465;57.664;39.686;2022-10-26T03:17:30;4.57;;;3.55;;
63342;SDS011;49465;57.664;39.686;2022-10-26T03:19:59;5.95;;;3.67;;
63342;SDS011;49465;57.664;39.686;2022-10-26T03:22:31;4.05;;;3.65;;
63342;SDS011;49465;57.664;39.686;2022-10-26T03:25:00;6.05;;;3.85;;
63342;SDS011;49465;57.664;39.686;2022-10-26T03:27:54;5.68;;;4.30;;
63342;SDS011;49465;57.664;39.686;2022-10-26T03:30:45;4.88;;;4.00;;
63342;SDS011;49465;57.664;39.686;2022-10-26T03:33:32;6.35;;;4.00;;
63342;SDS011;49465;57.664;39.686;2022-10-26T03:36:17;4.95;;;4.00;;
63342;SDS011;49465;57.664;39.686;2022-10-26T03:39:05;5.45;;;4.28;;
63342;SDS011;49465;57.664;39.686;2022-10-26T03:41:31;5.80;;;4.50;;
63342;SDS011;49465;57.664;39.686;2022-10-26T03:44:04;5.13;;;4.35;;
63342;SDS011;49465;57.664;39.686;2022-10-26T03:46:51;7.60;;;4.57;;
63342;SDS011;49465;57.664;39.686;2022-10-26T03:49:39;6.03;;;4.78;;
63342;SDS011;49465;57.664;39.686;2022-10-26T03:52:07;5.78;;;4.85;;
63342;SDS011;49465;57.664;39.686;2022-10-26T03:54:55;5.78;;;4.78;;
63342;SDS011;49465;57.664;39.686;2022-10-26T03:57:21;5.60;;;4.88;;
63342;SDS011;49465;57.664;39.686;2022-10-26T04:00:10;6.32;;;5.10;;
63342;SDS011;49465;57.664;39.686;2022-10-26T04:02:45;7.55;;;5.70;;
63342;SDS011;49465;57.664;39.686;2022-10-26T04:05:36;8.95;;;4.97;;
63342;SDS011;49465;57.664;39.686;2022-10-26T04:08:21;5.82;;;5.03;;
63342;SDS011;49465;57.664;39.686;2022-10-26T04:10:53;6.53;;;5.47;;
63342;SDS011;49465;57.664;39.686;2022-10-26T04:13:23;7.53;;;5.35;;
63342;SDS011;49465;57.664;39.686;2022-10-26T04:15:55;7.18;;;5.18;;
63342;SDS011;49465;57.664;39.686;2022-10-26T04:18:22;9.98;;;5.18;;
63342;SDS011;49465;57.664;39.686;2022-10-26T04:20:52;7.05;;;5.25;;
63342;SDS011;49465;57.664;39.686;2022-10-26T04:23:43;7.53;;;5.45;;
63342;SDS011;49465;57.664;39.686;2022-10-26T04:26:09;6.70;;;5.38;;
63342;SDS011;49465;57.664;39.686;2022-10-26T04:29:00;6.28;;;5.10;;
63342;SDS011;49465;57.664;39.686;2022-10-26T04:31:44;6.55;;;5.40;;
63342;SDS011;49465;57.664;39.686;2022-10-26T04:34:16;7.28;;;5.32;;
63342;SDS011;49465;57.664;39.686;2022-10-26T04:36:49;8.63;;;5.75;;
63342;SDS011;49465;57.664;39.686;2022-10-26T04:39:36;6.38;;;5.25;;
63342;SDS011;49465;57.664;39.686;2022-10-26T04:42:27;8.55;;;5.60;;
63342;SDS011;49465;57.664;39.686;2022-10-26T04:45:12;7.97;;;5.35;;
63342;SDS011;49465;57.664;39.686;2022-10-26T04:47:45;7.72;;;5.35;;
63342;SDS011;49465;57.664;39.686;2022-10-26T04:50:27;6.80;;;5.43;;
63342;SDS011;49465;57.664;39.686;2022-10-26T04:53:12;7.82;;;5.75;;
63342;SDS011;49465;57.664;39.686;2022-10-26T04:55:44;8.30;;;5.93;;
63342;SDS011;49465;57.664;39.686;2022-10-26T04:58:31;8.15;;;5.53;;
63342;SDS011;49465;57.664;39.686;2022-10-26T05:01:03;12.45;;;6.18;;
63342;SDS011;49465;57.664;39.686;2022-10-26T05:03:29;8.77;;;5.90;;
63342;SDS011;49465;57.664;39.686;2022-10-26T05:05:59;14.05;;;6.88;;
63342;SDS011;49465;57.664;39.686;2022-10-26T05:08:44;9.15;;;6.30;;
63342;SDS011;49465;57.664;39.686;2022-10-26T05:11:29;8.50;;;6.30;;
63342;SDS011;49465;57.664;39.686;2022-10-26T05:14:14;8.23;;;6.45;;
63342;SDS011;49465;57.664;39.686;2022-10-26T05:16:59;10.18;;;6.10;;
63342;SDS011;49465;57.664;39.686;2022-10-26T05:19:28;8.93;;;6.88;;
63342;SDS011;49465;57.664;39.686;2022-10-26T05:21:54;8.00;;;6.88;;
63342;SDS011;49465;57.664;39.686;2022-10-26T05:24:21;10.00;;;6.80;;
63342;SDS011;49465;57.664;39.686;2022-10-26T05:26:47;11.82;;;6.68;;
63342;SDS011;49465;57.664;39.686;2022-10-26T05:29:35;8.63;;;7.07;;
63342;SDS011;49465;57.664;39.686;2022-10-26T05:32:01;10.23;;;7.43;;
63342;SDS011;49465;57.664;39.686;2022-10-26T05:34:30;10.02;;;7.28;;
63342;SDS011;49465;57.664;39.686;2022-10-26T05:36:57;9.10;;;6.80;;
63342;SDS011;49465;57.664;39.686;2022-10-26T05:39:41;9.90;;;7.13;;
63342;SDS011;49465;57.664;39.686;2022-10-26T05:42:26;8.52;;;6.75;;
63342;SDS011;49465;57.664;39.686;2022-10-26T05:44:53;10.13;;;6.63;;
63342;SDS011;49465;57.664;39.686;2022-10-26T05:47:36;11.20;;;6.60;;
63342;SDS011;49465;57.664;39.686;2022-10-26T05:50:12;9.98;;;6.78;;
63342;SDS011;49465;57.664;39.686;2022-10-26T05:52:59;9.23;;;6.78;;
63342;SDS011;49465;57.664;39.686;2022-10-26T05:55:29;9.93;;;6.40;;
63342;SDS011;49465;57.664;39.686;2022-10-26T05:57:56;8.88;;;6.10;;
63342;SDS011;49465;57.664;39.686;2022-10-26T06:01:04;11.32;;;6.68;;
63342;SDS011;49465;57.664;39.686;2022-10-26T06:03:51;10.57;;;6.70;;
63342;SDS011;49465;57.664;39.686;2022-10-26T06:06:26;8.55;;;6.47;;
63342;SDS011;49465;57.664;39.686;2022-10-26T06:09:24;8.88;;;6.38;;
63342;SDS011;49465;57.664;39.686;2022-10-26T06:12:09;8.57;;;6.32;;
63342;SDS011;49465;57.664;39.686;2022-10-26T06:14:58;8.60;;;5.88;;
63342;SDS011;49465;57.664;39.686;2022-10-26T06:20:51;9.97;;;5.80;;
63342;SDS011;49465;57.664;39.686;2022-10-26T06:32:31;7.60;;;5.00;;
63342;SDS011;49465;57.664;39.686;2022-10-26T06:35:08;6.57;;;5.30;;
63342;SDS011;49465;57.664;39.686;2022-10-26T06:37:42;5.80;;;5.05;;
63342;SDS011;49465;57.664;39.686;2022-10-26T06:40:13;7.22;;;5.20;;
63342;SDS011;49465;57.664;39.686;2022-10-26T06:42:41;5.60;;;5.05;;
63342;SDS011;49465;57.664;39.686;2022-10-26T06:45:12;6.45;;;4.63;;
63342;SDS011;49465;57.664;39.686;2022-10-26T06:48:02;6.55;;;4.28;;
63342;SDS011;49465;57.664;39.686;2022-10-26T06:51:01;6.30;;;4.60;;
63342;SDS011;49465;57.664;39.686;2022-10-26T06:56:48;5.80;;;4.70;;
63342;SDS011;49465;57.664;39.686;2022-10-26T07:02:31;5.35;;;4.28;;
63342;SDS011;49465;57.664;39.686;2022-10-26T07:05:06;4.82;;;4.32;;
63342;SDS011;49465;57.664;39.686;2022-10-26T07:07:54;6.22;;;4.45;;
63342;SDS011;49465;57.664;39.686;2022-10-26T07:10:57;6.20;;;4.55;;
63342;SDS011;49465;57.664;39.686;2022-10-26T07:13:47;4.75;;;4.22;;
63342;SDS011;49465;57.664;39.686;2022-10-26T07:16:17;6.43;;;4.35;;
63342;SDS011;49465;57.664;39.686;2022-10-26T07:18:48;5.03;;;3.65;;
63342;SDS011;49465;57.664;39.686;2022-10-26T07:21:33;6.85;;;4.13;;
63342;SDS011;49465;57.664;39.686;2022-10-26T07:24:03;5.18;;;3.75;;
63342;SDS011;49465;57.664;39.686;2022-10-26T07:26:54;5.20;;;4.10;;
63342;SDS011;49465;57.664;39.686;2022-10-26T07:29:24;6.05;;;4.35;;
63342;SDS011;49465;57.664;39.686;2022-10-26T07:31:51;6.25;;;4.07;;
63342;SDS011;49465;57.664;39.686;2022-10-26T07:34:18;4.35;;;3.95;;
63342;SDS011;49465;57.664;39.686;2022-10-26T07:37:02;5.97;;;4.28;;
63342;SDS011;49465;57.664;39.686;2022-10-26T07:39:47;5.68;;;4.18;;
63342;SDS011;49465;57.664;39.686;2022-10-26T07:42:34;5.05;;;4.43;;
63342;SDS011;49465;57.664;39.686;2022-10-26T07:45:04;8.32;;;4.30;;
63342;SDS011;49465;57.664;39.686;2022-10-26T07:47:57;6.22;;;3.83;;
63342;SDS011;49465;57.664;39.686;2022-10-26T07:50:45;4.32;;;3.92;;
63342;SDS011;49465;57.664;39.686;2022-10-26T07:53:15;5.05;;;3.80;;
63342;SDS011;49465;57.664;39.686;2022-10-26T07:56:00;4.30;;;3.90;;
63342;SDS011;49465;57.664;39.686;2022-10-26T07:58:26;5.07;;;3.80;;
63342;SDS011;49465;57.664;39.686;2022-10-26T08:00:53;4.43;;;4.00;;
63342;SDS011;49465;57.664;39.686;2022-10-26T08:06:36;5.97;;;4.00;;
63342;SDS011;49465;57.664;39.686;2022-10-26T08:09:21;5.93;;;4.07;;
63342;SDS011;49465;57.664;39.686;2022-10-26T08:12:05;4.75;;;3.92;;
63342;SDS011;49465;57.664;39.686;2022-10-26T08:14:53;6.25;;;4.00;;
63342;SDS011;49465;57.664;39.686;2022-10-26T08:17:38;10.43;;;4.40;;
63342;SDS011;49465;57.664;39.686;2022-10-26T08:20:22;4.85;;;3.88;;
63342;SDS011;49465;57.664;39.686;2022-10-26T08:23:07;4.68;;;4.18;;
63342;SDS011;49465;57.664;39.686;2022-10-26T08:26:02;5.93;;;4.10;;
63342;SDS011;49465;57.664;39.686;2022-10-26T08:28:47;4.53;;;3.70;;
63342;SDS011;49465;57.664;39.686;2022-10-26T08:31:32;4.63;;;3.97;;
63342;SDS011;49465;57.664;39.686;2022-10-26T08:34:23;6.20;;;4.30;;
63342;SDS011;49465;57.664;39.686;2022-10-26T08:36:52;5.82;;;4.32;;
63342;SDS011;49465;57.664;39.686;2022-10-26T08:39:24;6.40;;;4.10;;
63342;SDS011;49465;57.664;39.686;2022-10-26T08:42:18;6.35;;;4.22;;
63342;SDS011;49465;57.664;39.686;2022-10-26T08:48:16;5.35;;;4.03;;
63342;SDS011;49465;57.664;39.686;2022-10-26T08:51:15;11.02;;;4.50;;
63342;SDS011;49465;57.664;39.686;2022-10-26T08:53:59;5.65;;;3.97;;
63342;SDS011;49465;57.664;39.686;2022-10-26T08:56:59;5.68;;;3.50;;
63342;SDS011;49465;57.664;39.686;2022-10-26T09:00:12;4.35;;;3.85;;
63342;SDS011;49465;57.664;39.686;2022-10-26T09:03:10;6.70;;;4.00;;
63342;SDS011;49465;57.664;39.686;2022-10-26T09:13:08;5.60;;;4.00;;
63342;SDS011;49465;57.664;39.686;2022-10-26T09:25:02;3.97;;;3.58;;
63342;SDS011;49465;57.664;39.686;2022-10-26T09:27:50;10.25;;;5.53;;
63342;SDS011;49465;57.664;39.686;2022-10-26T09:31:02;7.10;;;4.25;;
63342;SDS011;49465;57.664;39.686;2022-10-26T09:33:42;8.43;;;5.72;;
63342;SDS011;49465;57.664;39.686;2022-10-26T09:36:26;4.57;;;3.70;;
63342;SDS011;49465;57.664;39.686;2022-10-26T09:39:11;6.28;;;3.60;;
63342;SDS011;49465;57.664;39.686;2022-10-26T09:42:10;4.63;;;3.67;;
63342;SDS011;49465;57.664;39.686;2022-10-26T09:44:54;4.88;;;3.47;;
63342;SDS011;49465;57.664;39.686;2022-10-26T09:47:31;4.25;;;3.30;;
63342;SDS011;49465;57.664;39.686;2022-10-26T09:50:26;8.27;;;3.88;;
63342;SDS011;49465;57.664;39.686;2022-10-26T09:53:03;4.88;;;3.53;;
63342;SDS011;49465;57.664;39.686;2022-10-26T09:58:52;4.65;;;3.65;;
63342;SDS011;49465;57.664;39.686;2022-10-26T10:01:49;6.57;;;3.75;;
63342;SDS011;49465;57.664;39.686;2022-10-26T10:04:34;6.00;;;3.70;;
63342;SDS011;49465;57.664;39.686;2022-10-26T10:07:28;4.87;;;3.43;;
63342;SDS011;49465;57.664;39.686;2022-10-26T10:12:45;4.57;;;3.67;;
63342;SDS011;49465;57.664;39.686;2022-10-26T10:15:35;4.82;;;3.50;;
63342;SDS011;49465;57.664;39.686;2022-10-26T10:18:23;3.92;;;3.30;;
63342;SDS011;49465;57.664;39.686;2022-10-26T10:20:55;5.47;;;3.40;;
63342;SDS011;49465;57.664;39.686;2022-10-26T10:23:46;4.15;;;3.40;;
63342;SDS011;49465;57.664;39.686;2022-10-26T10:26:38;5.68;;;3.30;;
63342;SDS011;49465;57.664;39.686;2022-10-26T10:29:43;4.55;;;3.55;;
63342;SDS011;49465;57.664;39.686;2022-10-26T10:32:18;4.13;;;3.50;;
63342;SDS011;49465;57.664;39.686;2022-10-26T10:35:20;4.70;;;3.75;;
63342;SDS011;49465;57.664;39.686;2022-10-26T10:37:59;5.43;;;3.53;;
63342;SDS011;49465;57.664;39.686;2022-10-26T10:40:49;5.53;;;3.20;;
63342;SDS011;49465;57.664;39.686;2022-10-26T10:43:20;4.50;;;3.15;;
63342;SDS011;49465;57.664;39.686;2022-10-26T10:45:57;5.82;;;3.50;;
63342;SDS011;49465;57.664;39.686;2022-10-26T10:48:48;6.22;;;3.22;;
63342;SDS011;49465;57.664;39.686;2022-10-26T10:51:22;5.43;;;3.10;;
63342;SDS011;49465;57.664;39.686;2022-10-26T10:54:20;3.83;;;3.20;;
63342;SDS011;49465;57.664;39.686;2022-10-26T10:57:19;4.53;;;3.08;;
63342;SDS011;49465;57.664;39.686;2022-10-26T11:03:07;4.25;;;3.03;;
63342;SDS011;49465;57.664;39.686;2022-10-26T11:09:04;4.85;;;3.10;;
63342;SDS011;49465;57.664;39.686;2022-10-26T11:14:33;4.45;;;3.08;;
63342;SDS011;49465;57.664;39.686;2022-10-26T11:17:18;5.18;;;3.28;;
63342;SDS011;49465;57.664;39.686;2022-10-26T11:20:03;4.70;;;3.28;;
63342;SDS011;49465;57.664;39.686;2022-10-26T11:22:55;3.92;;;3.20;;
63342;SDS011;49465;57.664;39.686;2022-10-26T11:25:45;4.63;;;3.47;;
63342;SDS011;49465;57.664;39.686;2022-10-26T11:32:09;4.18;;;3.40;;
63342;SDS011;49465;57.664;39.686;2022-10-26T11:38:03;5.30;;;3.22;;
63342;SDS011;49465;57.664;39.686;2022-10-26T11:41:18;4.70;;;3.03;;
63342;SDS011;49465;57.664;39.686;2022-10-26T11:44:02;6.22;;;3.20;;
63342;SDS011;49465;57.664;39.686;2022-10-26T11:50:30;3.97;;;3.03;;
63342;SDS011;49465;57.664;39.686;2022-10-26T11:53:40;5.20;;;3.20;;
63342;SDS011;49465;57.664;39.686;2022-10-26T11:56:23;5.45;;;2.85;;
63342;SDS011;49465;57.664;39.686;2022-10-26T11:59:19;4.05;;;3.00;;
63342;SDS011;49465;57.664;39.686;2022-10-26T12:01:52;6.30;;;3.30;;
63342;SDS011;49465;57.664;39.686;2022-10-26T12:04:29;4.97;;;3.35;;
63342;SDS011;49465;57.664;39.686;2022-10-26T12:07:19;5.97;;;3.50;;
63342;SDS011;49465;57.664;39.686;2022-10-26T12:16:20;5.72;;;3.60;;
63342;SDS011;49465;57.664;39.686;2022-10-26T12:22:17;10.15;;;3.92;;
63342;SDS011;49465;57.664;39.686;2022-10-26T12:25:09;5.63;;;3.47;;
63342;SDS011;49465;57.664;39.686;2022-10-26T12:30:30;8.85;;;3.90;;
63342;SDS011;49465;57.664;39.686;2022-10-26T12:33:26;5.13;;;3.70;;
63342;SDS011;49465;57.664;39.686;2022-10-26T12:42:09;6.00;;;3.40;;
63342;SDS011;49465;57.664;39.686;2022-10-26T12:45:06;6.10;;;3.75;;
63342;SDS011;49465;57.664;39.686;2022-10-26T12:50:30;6.45;;;3.15;;
63342;SDS011;49465;57.664;39.686;2022-10-26T12:53:09;6.68;;;3.80;;
63342;SDS011;49465;57.664;39.686;2022-10-26T12:55:49;3.85;;;3.20;;
63342;SDS011;49465;57.664;39.686;2022-10-26T12:58:37;4.93;;;3.30;;
63342;SDS011;49465;57.664;39.686;2022-10-26T13:07:38;6.55;;;3.20;;
63342;SDS011;49465;57.664;39.686;2022-10-26T13:12:56;4.15;;;3.10;;
63342;SDS011;49465;57.664;39.686;2022-10-26T13:15:54;7.75;;;3.38;;
63342;SDS011;49465;57.664;39.686;2022-10-26T13:18:24;5.00;;;3.40;;
63342;SDS011;49465;57.664;39.686;2022-10-26T13:21:14;5.93;;;3.47;;
63342;SDS011;49465;57.664;39.686;2022-10-26T13:24:12;5.45;;;3.35;;
63342;SDS011;49465;57.664;39.686;2022-10-26T13:32:53;5.43;;;3.23;;
63342;SDS011;49465;57.664;39.686;2022-10-26T13:35:22;6.50;;;3.58;;
63342;SDS011;49465;57.664;39.686;2022-10-26T13:38:09;5.63;;;3.08;;
63342;SDS011;49465;57.664;39.686;2022-10-26T13:40:40;5.43;;;3.08;;
63342;SDS011;49465;57.664;39.686;2022-10-26T13:43:29;4.15;;;2.92;;
63342;SDS011;49465;57.664;39.686;2022-10-26T13:46:46;7.90;;;3.30;;
63342;SDS011;49465;57.664;39.686;2022-10-26T13:49:29;3.17;;;2.80;;
63342;SDS011;49465;57.664;39.686;2022-10-26T13:52:27;5.18;;;3.10;;
63342;SDS011;49465;57.664;39.686;2022-10-26T13:55:02;4.80;;;3.22;;
63342;SDS011;49465;57.664;39.686;2022-10-26T14:01:10;6.93;;;3.30;;
63342;SDS011;49465;57.664;39.686;2022-10-26T14:03:58;5.20;;;2.92;;
63342;SDS011;49465;57.664;39.686;2022-10-26T14:06:56;7.20;;;3.35;;
63342;SDS011;49465;57.664;39.686;2022-10-26T14:09:29;5.65;;;3.00;;
63342;SDS011;49465;57.664;39.686;2022-10-26T14:11:58;3.67;;;2.60;;
63342;SDS011;49465;57.664;39.686;2022-10-26T14:14:47;5.50;;;2.90;;
63342;SDS011;49465;57.664;39.686;2022-10-26T14:17:39;5.00;;;2.55;;
63342;SDS011;49465;57.664;39.686;2022-10-26T14:20:24;6.15;;;2.67;;
63342;SDS011;49465;57.664;39.686;2022-10-26T14:23:27;4.15;;;3.17;;
63342;SDS011;49465;57.664;39.686;2022-10-26T14:29:12;3.38;;;2.70;;
63342;SDS011;49465;57.664;39.686;2022-10-26T14:32:00;4.40;;;3.20;;
63342;SDS011;49465;57.664;39.686;2022-10-26T14:35:17;5.63;;;3.10;;
63342;SDS011;49465;57.664;39.686;2022-10-26T14:38:14;6.82;;;3.28;;
63342;SDS011;49465;57.664;39.686;2022-10-26T14:40:50;5.28;;;3.50;;
63342;SDS011;49465;57.664;39.686;2022-10-26T14:43:21;6.28;;;3.28;;
63342;SDS011;49465;57.664;39.686;2022-10-26T14:45:51;5.82;;;3.42;;
63342;SDS011;49465;57.664;39.686;2022-10-26T14:48:53;5.03;;;3.40;;
63342;SDS011;49465;57.664;39.686;2022-10-26T14:51:39;4.23;;;3.50;;
63342;SDS011;49465;57.664;39.686;2022-10-26T14:54:16;5.28;;;3.72;;
63342;SDS011;49465;57.664;39.686;2022-10-26T14:56:46;8.82;;;3.55;;
63342;SDS011;49465;57.664;39.686;2022-10-26T14:59:26;7.05;;;3.92;;
63342;SDS011;49465;57.664;39.686;2022-10-26T15:01:58;4.32;;;3.38;;
63342;SDS011;49465;57.664;39.686;2022-10-26T15:07:52;4.93;;;3.70;;
63342;SDS011;49465;57.664;39.686;2022-10-26T15:15:51;6.80;;;3.40;;
63342;SDS011;49465;57.664;39.686;2022-10-26T15:20:54;4.57;;;3.47;;
63342;SDS011;49465;57.664;39.686;2022-10-26T15:23:40;5.75;;;3.63;;
63342;SDS011;49465;57.664;39.686;2022-10-26T15:26:08;8.57;;;3.85;;
63342;SDS011;49465;57.664;39.686;2022-10-26T15:28:55;8.68;;;3.78;;
63342;SDS011;49465;57.664;39.686;2022-10-26T15:31:30;3.47;;;3.17;;
63342;SDS011;49465;57.664;39.686;2022-10-26T15:34:15;4.22;;;3.28;;
63342;SDS011;49465;57.664;39.686;2022-10-26T15:37:06;4.05;;;3.47;;
63342;SDS011;49465;57.664;39.686;2022-10-26T15:39:33;6.45;;;3.45;;
63342;SDS011;49465;57.664;39.686;2022-10-26T15:42:04;4.43;;;3.67;;
63342;SDS011;49465;57.664;39.686;2022-10-26T15:44:58;7.00;;;3.60;;
63342;SDS011;49465;57.664;39.686;2022-10-26T15:47:43;6.15;;;3.60;;
63342;SDS011;49465;57.664;39.686;2022-10-26T15:50:15;5.68;;;3.80;;
63342;SDS011;49465;57.664;39.686;2022-10-26T15:52:46;5.78;;;3.45;;
63342;SDS011;49465;57.664;39.686;2022-10-26T15:55:14;6.60;;;3.50;;
63342;SDS011;49465;57.664;39.686;2022-10-26T15:57:43;5.88;;;3.53;;
63342;SDS011;49465;57.664;39.686;2022-10-26T16:00:33;4.60;;;3.67;;
63342;SDS011;49465;57.664;39.686;2022-10-26T16:03:19;6.72;;;3.47;;
63342;SDS011;49465;57.664;39.686;2022-10-26T16:06:16;4.60;;;3.70;;
63342;SDS011;49465;57.664;39.686;2022-10-26T16:08:59;4.95;;;3.65;;
63342;SDS011;49465;57.664;39.686;2022-10-26T16:11:33;4.05;;;3.40;;
63342;SDS011;49465;57.664;39.686;2022-10-26T16:14:07;4.88;;;3.45;;
63342;SDS011;49465;57.664;39.686;2022-10-26T16:16:39;5.38;;;3.78;;
63342;SDS011;49465;57.664;39.686;2022-10-26T16:19:15;4.97;;;3.13;;
63342;SDS011;49465;57.664;39.686;2022-10-26T16:21:49;7.50;;;3.45;;
63342;SDS011;49465;57.664;39.686;2022-10-26T16:24:16;6.45;;;3.83;;
63342;SDS011;49465;57.664;39.686;2022-10-26T16:26:42;7.35;;;3.50;;
63342;SDS011;49465;57.664;39.686;2022-10-26T16:29:09;5.45;;;3.60;;
63342;SDS011;49465;57.664;39.686;2022-10-26T16:31:35;5.88;;;3.20;;
63342;SDS011;49465;57.664;39.686;2022-10-26T16:34:07;5.75;;;3.45;;
63342;SDS011;49465;57.664;39.686;2022-10-26T16:37:01;5.28;;;3.67;;
63342;SDS011;49465;57.664;39.686;2022-10-26T16:39:28;4.28;;;3.30;;
63342;SDS011;49465;57.664;39.686;2022-10-26T16:41:57;6.47;;;3.42;;
63342;SDS011;49465;57.664;39.686;2022-10-26T16:44:26;5.22;;;3.40;;
63342;SDS011;49465;57.664;39.686;2022-10-26T16:46:57;4.10;;;3.28;;
63342;SDS011;49465;57.664;39.686;2022-10-26T16:49:45;3.78;;;2.80;;
63342;SDS011;49465;57.664;39.686;2022-10-26T16:52:33;4.75;;;3.50;;
63342;SDS011;49465;57.664;39.686;2022-10-26T16:55:24;6.20;;;3.20;;
63342;SDS011;49465;57.664;39.686;2022-10-26T16:57:55;3.28;;;2.83;;
63342;SDS011;49465;57.664;39.686;2022-10-26T17:00:22;8.10;;;3.28;;
63342;SDS011;49465;57.664;39.686;2022-10-26T17:03:10;5.97;;;3.25;;
63342;SDS011;49465;57.664;39.686;2022-10-26T17:05:58;9.27;;;3.33;;
63342;SDS011;49465;57.664;39.686;2022-10-26T17:08:47;4.40;;;3.28;;
63342;SDS011;49465;57.664;39.686;2022-10-26T17:11:32;4.63;;;3.00;;
63342;SDS011;49465;57.664;39.686;2022-10-26T17:14:18;4.35;;;3.17;;
63342;SDS011;49465;57.664;39.686;2022-10-26T17:16:44;6.05;;;3.17;;
63342;SDS011;49465;57.664;39.686;2022-10-26T17:19:32;4.88;;;3.25;;
63342;SDS011;49465;57.664;39.686;2022-10-26T17:22:16;5.03;;;3.30;;
63342;SDS011;49465;57.664;39.686;2022-10-26T17:25:04;6.05;;;3.13;;
63342;SDS011;49465;57.664;39.686;2022-10-26T17:27:37;3.80;;;3.05;;
63342;SDS011;49465;57.664;39.686;2022-10-26T17:30:09;4.05;;;3.40;;
63342;SDS011;49465;57.664;39.686;2022-10-26T17:33:00;4.30;;;3.65;;
63342;SDS011;49465;57.664;39.686;2022-10-26T17:35:31;6.65;;;3.28;;
63342;SDS011;49465;57.664;39.686;2022-10-26T17:38:16;4.38;;;3.40;;
63342;SDS011;49465;57.664;39.686;2022-10-26T17:41:04;4.57;;;3.30;;
63342;SDS011;49465;57.664;39.686;2022-10-26T17:43:37;6.18;;;3.28;;
63342;SDS011;49465;57.664;39.686;2022-10-26T17:46:11;4.80;;;3.35;;
63342;SDS011;49465;57.664;39.686;2022-10-26T17:48:42;4.85;;;3.40;;
63342;SDS011;49465;57.664;39.686;2022-10-26T17:51:30;4.95;;;3.30;;
63342;SDS011;49465;57.664;39.686;2022-10-26T17:53:56;5.28;;;3.30;;
63342;SDS011;49465;57.664;39.686;2022-10-26T17:56:27;7.15;;;3.50;;
63342;SDS011;49465;57.664;39.686;2022-10-26T17:59:00;4.65;;;3.17;;
63342;SDS011;49465;57.664;39.686;2022-10-26T18:01:28;4.45;;;3.40;;
63342;SDS011;49465;57.664;39.686;2022-10-26T18:04:17;3.65;;;3.00;;
63342;SDS011;49465;57.664;39.686;2022-10-26T18:06:48;4.40;;;3.25;;
63342;SDS011;49465;57.664;39.686;2022-10-26T18:09:21;4.88;;;3.30;;
63342;SDS011;49465;57.664;39.686;2022-10-26T18:12:11;14.00;;;3.90;;
63342;SDS011;49465;57.664;39.686;2022-10-26T18:15:02;3.95;;;3.03;;
63342;SDS011;49465;57.664;39.686;2022-10-26T18:17:48;7.38;;;3.50;;
63342;SDS011;49465;57.664;39.686;2022-10-26T18:20:15;4.30;;;3.28;;
63342;SDS011;49465;57.664;39.686;2022-10-26T18:22:47;4.57;;;3.60;;
63342;SDS011;49465;57.664;39.686;2022-10-26T18:25:32;4.63;;;3.38;;
63342;SDS011;49465;57.664;39.686;2022-10-26T18:28:00;4.78;;;3.63;;
63342;SDS011;49465;57.664;39.686;2022-10-26T18:30:36;4.63;;;3.60;;
63342;SDS011;49465;57.664;39.686;2022-10-26T18:33:09;5.15;;;3.30;;
63342;SDS011;49465;57.664;39.686;2022-10-26T18:35:51;4.75;;;3.35;;